x

8454049 - Quonset Point, Ri (qptr1) Weather Station

1:30 - Mon 27th Mar 2017 All times are EDT. -4 hours from GMT.

  • Wind
    10mph
  • Sea Temp 39°f
  • Ar Temp 42°f
  • Sea Pressure 1017.7mb
  • 8454049 - Quonset Point, Ri
  • 8454049 - Quonset Point, Ri

More Historic Weather Station data

Upgrade to MSW Pro to gain access to the past 30 days of data for over 8000 Wavebouys and Weather Stations around the globe.

Join Pro

Comparision Forecast

View Surf forecast
   
Seg 03/27 1:30 10
mph
1017.7mb 39f 42f
1:24 9 10 mph 1017.8mb 39f 42f
1:18 9
mph
1018mb 39f 42f
1:12 8 9 mph 1018.1mb 39f 42f
1:06 8 9 mph 1018.3mb 39f 42f
1:00 8
mph
1018.3mb 39f 42f
12:54 7 8 mph 1018.5mb 39f 42f
12:48 8 9 mph 1018.6mb 39f 42f
12:42 7 8 mph 1018.7mb 39f 42f
12:36 3 6 mph 1019mb 39f 42f
12:30 2 3 mph 1019mb 39f 42f
12:24 2 3 mph 1018.9mb 39f 42f
12:18 3
mph
1019.1mb 39f 41f
12:12 2 3 mph 1019.2mb 39f 41f
12:06 2 3 mph 1019.2mb 39f 41f
12:00 3
mph
1019.4mb 39f 41f
11:54 3
mph
1019.5mb 39f 41f
11:48 3 6 mph - - -
11:42 3 5 mph 1019.7mb 39f 41f
11:36 3
mph
1019.8mb 39f 41f
11:30 3 6 mph 1019.8mb 39f 41f
11:24 5 6 mph 1020mb 39f 41f
11:18 5 6 mph 1019.9mb 39f 41f
11:12 5 7 mph 1020mb 39f 41f
11:06 8 11 mph 1020.1mb 39f 41f
11:00 9 11 mph 1020.1mb 39f 42f
10:54 9
mph
1020.1mb 39f 42f
10:48 7 10 mph - - -
10:42 6 8 mph 1020.4mb 39f 41f
10:36 7 8 mph 1020.6mb 39f 42f
10:30 7 10 mph 1020.6mb 39f 41f
10:24 8 10 mph 1020.6mb 39f 42f
10:18 8 11 mph 1020.6mb 39f 41f
10:12 10 11 mph 1020.6mb 39f 41f
10:06 9 11 mph 1021mb 39f 41f
10:00 10 15 mph 1021mb 39f 41f
9:54 8 10 mph 1021.1mb 39f 41f
9:48 10 13 mph 1021.2mb 39f 42f
9:42 7 8 mph 1021.4mb 39f 42f
9:36 7 9 mph 1021.3mb 39f 42f
9:30 6 7 mph 1021.3mb 39f 42f
9:24 3 5 mph 1021.4mb 39f 41f
9:18 3 6 mph - - -
9:12 5 6 mph 1021.5mb 39f 40f
9:06 6 7 mph 1021.5mb 39f 40f
9:00 7 8 mph 1021.4mb 39f 40f
8:54 5 7 mph 1021.7mb 39f 40f
8:48 3 5 mph 1021.9mb 39f 39f
8:42 3
mph
1022mb 39f 39f
8:36 2 3 mph 1022.2mb 39f 39f
8:30 3 5 mph 1022.3mb 39f 39f
8:24 3 5 mph 1022.5mb 39f 39f
8:18 3 5 mph - - -
8:12 3 5 mph 1022.7mb 39f 39f
8:06 5 6 mph 1022.7mb 39f 39f
8:00 5
mph
1022.6mb 39f 39f
7:54 3
mph
1022.8mb 39f 39f
7:48 3 5 mph 1023mb 39f 39f
7:42 3 5 mph 1022.9mb 39f 39f
7:36 3
mph
1023mb 39f 39f
7:30 3
mph
1023.1mb 39f 39f
7:24 3 5 mph 1023.1mb 39f 39f
7:18 5 6 mph 1023.2mb 39f 39f
7:12 5 6 mph 1023.1mb 39f 38f
7:06 5 6 mph 1023.2mb 38f 38f
7:00 3 5 mph 1023.2mb 39f 38f
6:54 5
mph
1023.3mb 38f 38f
6:48 3 5 mph 1023.4mb 39f 38f
6:42 5 6 mph 1023.4mb 39f 38f
6:36 6 7 mph 1023.3mb 38f 38f
6:30 6
mph
1023.4mb 38f 38f
6:24 5 6 mph 1023.7mb 39f 38f
6:18 5 6 mph 1023.9mb 39f 38f
6:12 6 7 mph 1023.8mb 39f 38f
6:06 5 7 mph 1023.8mb 39f 38f
6:00 6 7 mph 1023.9mb 39f 38f
5:54 7
mph
1024mb 39f 38f
5:48 6 7 mph 1024.2mb 39f 37f
5:42 6 7 mph 1024.3mb 39f 37f
5:36 6 7 mph 1024.5mb 39f 37f
5:30 7
mph
1024.6mb 39f 37f
5:24 6 8 mph 1024.7mb 39f 37f
5:18 7 9 mph 1024.7mb 39f 37f
5:12 9 10 mph 1024.6mb 39f 37f
5:06 9 10 mph 1024.7mb 39f 37f
5:00 9 10 mph 1024.9mb 39f 37f
4:54 9 10 mph 1025mb 39f 37f
4:48 9 10 mph 1024.9mb 39f 37f
4:42 8 9 mph 1025.1mb 39f 37f
4:36 8 9 mph 1025.1mb 39f 37f
4:30 9
mph
1025.2mb 39f -
4:24 8 9 mph 1025.1mb 39f 36f
4:18 8 9 mph 1025.2mb 39f 36f
4:12 8 11 mph 1025.3mb 39f 36f
4:06 10 11 mph 1025.1mb 39f 36f
4:00 10
mph
1025.3mb 39f 36f
3:54 10 11 mph 1025.5mb 39f 36f
3:48 8 10 mph 1025.7mb 39f 36f
3:42 8 10 mph 1025.8mb 39f 36f
3:36 7 10 mph 1026mb 39f 36f
3:30 8 10 mph 1026mb 39f 36f
3:24 9
mph
1026.2mb 39f 36f
3:18 8 9 mph 1026.2mb 39f 36f
3:12 8 9 mph 1026.2mb 39f 36f
3:06 8 9 mph 1026.3mb 39f 36f
3:00 7 9 mph 1026.3mb 39f -
2:54 8 9 mph 1026.5mb 39f 36f
2:48 8 9 mph 1026.7mb 39f 36f
2:42 8 9 mph 1026.8mb 39f 36f
2:36 7 11 mph 1027mb 39f 36f
2:30 11 13 mph 1026.9mb 39f 36f
2:24 9 11 mph 1027.1mb 39f 36f
2:18 10 11 mph 1027.1mb 39f 36f
2:12 9 10 mph 1027.1mb 39f 36f
2:06 9 11 mph 1027.2mb 39f 36f
2:00 9 11 mph 1027.2mb 39f 36f
1:54 9 10 mph 1027.3mb 39f 36f
1:48 8 9 mph 1027.4mb 39f 36f
1:42 8 9 mph 1027.5mb 39f 36f
1:36 9 10 mph 1027.7mb 39f 36f
1:30 9 10 mph 1027.9mb 39f 36f
1:24 9 13 mph 1028mb 39f 36f
1:18 9 11 mph 1028mb 39f 36f
1:12 11 13 mph 1028.1mb 39f 36f
1:06 8 11 mph 1028.3mb 39f 36f
1:00 8 10 mph 1028.4mb 39f 36f
12:54 9 10 mph 1028.6mb 39f 36f
12:48 8 10 mph 1028.7mb 39f 36f
12:42 8 11 mph 1028.8mb 39f 36f
12:36 8 10 mph 1028.9mb 39f 37f
12:30 9 13 mph 1029mb - -
12:24 10 14 mph 1029mb 39f 37f
12:18 10 11 mph 1029.1mb 39f 37f
12:12 9 14 mph 1029.1mb 39f 37f
12:06 9 14 mph 1029.1mb 39f 37f
12:00 7 9 mph 1029.2mb 39f 38f
Dom 03/26 11:54 6 7 mph 1029.3mb 39f 38f
11:48 8 10 mph - - -
11:42 7 8 mph 1029.3mb 39f 38f
11:36 6 8 mph 1029.5mb 39f 38f
11:30 7 8 mph 1029.6mb 39f 38f
11:24 6 9 mph 1029.6mb 39f 38f
11:18 7 11 mph 1029.5mb 39f 38f
11:12 9 11 mph 1029.4mb 39f 38f
11:06 9 10 mph 1029.5mb 39f 38f
11:00 8 11 mph 1029.7mb 39f 38f
10:54 8 10 mph 1029.7mb 39f 37f
10:48 9 10 mph 1029.6mb 39f 37f
10:42 9 10 mph 1029.7mb 39f 37f
10:36 9 13 mph 1029.7mb 39f 37f
10:30 13 14 mph 1029.3mb 39f 37f
10:24 14 15 mph 1029.3mb 39f 37f
10:18 13 15 mph - - -
10:12 13 14 mph 1029.9mb 39f 37f
10:06 10 14 mph 1030mb 39f 37f
10:00 11 14 mph 1030mb 39f 37f
9:54 13 16 mph 1030mb 39f 37f
9:48 13 17 mph 1030mb - -
9:42 15 18 mph 1029.8mb 39f 37f
9:36 14 17 mph 1030mb 39f 37f
9:30 15 17 mph 1030.1mb 39f 37f
9:24 13 15 mph 1030.2mb 39f 38f
9:18 13 15 mph - - -
9:12 14 15 mph 1030.5mb 39f 38f
9:06 14 16 mph 1030.6mb 39f 38f
9:00 13 14 mph 1030.5mb 39f 38f
8:54 13 15 mph 1030.6mb 39f 38f
8:48 11 14 mph 1030.6mb - -
8:42 11 14 mph 1030.8mb 39f 38f
8:36 11 13 mph 1030.8mb 39f 38f
8:30 10 13 mph 1031mb 39f 38f
8:24 13 14 mph 1031mb 39f 38f
8:18 14 15 mph - - -
8:12 10 14 mph 1031mb 39f 38f
8:06 14 15 mph 1030.9mb 39f 38f
8:00 14 16 mph 1030.9mb 39f 38f
7:54 10 11 mph 1031.1mb 39f 38f
7:48 10 11 mph 1031.2mb - -
7:42 9 11 mph 1031.2mb 39f 38f
7:36 10 11 mph 1031.1mb 39f 38f
7:30 9 11 mph 1031mb 39f 38f
7:24 9 11 mph 1030.9mb 39f 38f
7:18 10 11 mph - - -
7:12 8 9 mph 1031.2mb 39f 38f
7:06 8 14 mph 1031.3mb 39f 38f
7:00 11 13 mph 1031.2mb 39f 38f
6:54 10 11 mph 1031.3mb 39f 38f
6:48 10 11 mph 1031.3mb - -
6:42 10 11 mph 1031.4mb 39f 39f
6:36 10 13 mph 1031.3mb 39f 39f
6:30 10 11 mph 1031.4mb 39f 38f
6:24 11 13 mph 1031.5mb 39f 39f
6:18 11 13 mph 1031.5mb - -
6:12 9 13 mph 1031.4mb 39f 39f
6:06 11 13 mph 1031.4mb 39f 39f
6:00 10 13 mph 1031.5mb 39f 39f
5:54 11 13 mph 1031.5mb 39f 39f
5:48 11 14 mph 1031.7mb - -
5:42 13 14 mph 1031.7mb 39f 39f
5:36 10 14 mph 1031.7mb 39f 39f
5:30 13 15 mph 1031.6mb 39f 39f
5:24 14 15 mph 1031.6mb 39f 39f
5:18 14 15 mph 1031.6mb 39f 39f
5:12 13 15 mph 1031.7mb 39f 39f
5:06 14 16 mph 1031.7mb 39f 39f
5:00 14 16 mph 1031.8mb 39f 39f
4:54 15 16 mph 1031.7mb 39f 39f
4:48 14 16 mph - - -
4:42 14 15 mph 1032.1mb 39f 39f
4:36 14 15 mph 1032.3mb 39f 39f
4:30 13 14 mph 1032.3mb 39f 39f
4:24 11 14 mph 1032.3mb 39f 39f
4:18 11 15 mph 1032.4mb 39f 39f
4:12 13 15 mph 1032.5mb 39f 39f
4:06 14 16 mph 1032.5mb 39f 39f
4:00 14 15 mph 1032.5mb 39f 40f
3:54 14 16 mph 1032.5mb 39f 39f
3:48 13 16 mph 1032.6mb 39f 39f
3:42 13 16 mph 1032.7mb 39f 39f
3:36 14 18 mph 1032.8mb 39f 40f
3:30 15 18 mph 1032.7mb 39f 40f
3:24 16 18 mph 1032.7mb 39f 39f
3:18 15 18 mph 1032.8mb 39f 39f
3:12 16 18 mph 1032.8mb 39f 39f
3:06 17 20 mph 1032.8mb 39f 39f
3:00 15 17 mph 1032.9mb 39f -
2:54 14 17 mph 1032.7mb 39f 39f
2:48 13 17 mph - - -
2:42 14 16 mph 1033mb 39f 40f
2:36 14 17 mph 1033mb 39f 40f
2:30 13 17 mph 1033mb 39f 40f
2:24 15 17 mph 1033mb 39f 40f
2:18 14 16 mph 1033mb 39f 40f
2:12 13 15 mph 1033.1mb 39f 40f
2:06 13 15 mph 1033.1mb 39f 40f
2:00 14 16 mph 1033mb 39f 40f
1:54 13 15 mph 1033mb 39f 40f
1:48 14 16 mph 1033mb 39f 40f
1:42 11 15 mph 1033.1mb 39f 40f
1:36 14 17 mph 1033.1mb 39f 40f
1:30 13 15 mph 1033.2mb 39f 40f
1:24 13 15 mph 1033.2mb 39f 40f
1:18 13 14 mph 1033.2mb 38f 40f
1:12 11 14 mph 1033.3mb 38f 40f
1:06 11 14 mph 1033.4mb 38f 40f
1:00 11 14 mph 1033.3mb 38f 40f
12:54 11 15 mph 1033.4mb 38f 40f
12:48 15 16 mph 1033.4mb 38f 40f
12:42 13 14 mph 1033.4mb 38f 40f
12:36 13 14 mph 1033.4mb 38f 41f
12:30 13 14 mph 1033.3mb 38f -
12:24 13 15 mph 1033.4mb 38f 41f
12:18 10 13 mph 1033.4mb 38f 41f
12:12 10 13 mph 1033.4mb 38f 41f
12:06 9 10 mph 1033.3mb 38f 41f
12:00 8 10 mph 1033.4mb 38f 41f
11:54 8 10 mph 1033.5mb 38f 41f
11:48 8 11 mph 1033.5mb 38f 41f
11:42 8 9 mph 1033.3mb 38f 41f
11:36 8 10 mph 1033.3mb 38f 41f
11:30 9 11 mph 1033.3mb 38f 41f
11:24 10 14 mph 1033.1mb 38f 41f
11:18 10 13 mph 1033.2mb 38f 41f
11:12 10 11 mph 1033.2mb 38f 41f
11:06 9 11 mph 1033.3mb 38f 41f
11:00 9 10 mph 1033.4mb 38f -
10:54 10 11 mph 1033.5mb 38f 40f
10:48 10 13 mph 1033.6mb 38f 40f
10:42 10 13 mph 1033.6mb 38f 40f
10:36 11 14 mph 1033.5mb 38f 39f
10:30 13 14 mph 1033.5mb 38f 39f
10:24 11 14 mph 1033.4mb 38f 39f
10:18 13 14 mph 1033.5mb 38f 39f
10:12 14 15 mph 1033.3mb 38f 39f
10:06 14 16 mph 1033.3mb 38f 39f
10:00 14 16 mph 1033.3mb 38f 38f
9:54 15 17 mph 1033.3mb 38f 38f
9:48 15 16 mph 1033.2mb 38f 38f
9:42 14 17 mph 1033.3mb 38f 38f
9:36 15 17 mph 1033.2mb 38f 38f
9:30 15 18 mph 1033.2mb 38f -
9:24 14 18 mph 1033.1mb 38f 38f
9:18 14 15 mph 1033.1mb 38f 38f
9:12 13 14 mph 1033.3mb 38f 37f
9:06 13 15 mph 1033.4mb 38f 37f
9:00 11 14 mph 1033.4mb 38f 37f
8:54 13 14 mph 1033.4mb 38f 37f
8:48 11 14 mph 1033.3mb 38f 36f
8:42 11 14 mph 1033.3mb 38f 36f
8:36 11 15 mph 1033.3mb 38f 36f
8:30 14 16 mph 1033mb 38f 35f
8:24 16 17 mph 1032.8mb 38f 35f
8:18 15 17 mph 1032.9mb 38f 35f
8:12 14 16 mph 1033.1mb 38f 35f
8:06 15 17 mph 1033.2mb 38f 35f
8:00 15 17 mph 1033mb 38f 35f
7:54 16 18 mph 1032.8mb 38f 35f
7:48 14 16 mph 1032.8mb 38f 35f
7:42 13 16 mph 1032.8mb 38f 35f
7:36 15 17 mph 1032.9mb 38f 35f
7:30 14 17 mph 1032.8mb 38f 35f
7:24 16 18 mph 1032.8mb 38f 34f
7:18 15 17 mph - - -
7:12 14 16 mph 1032.8mb 38f 35f
7:06 15 16 mph 1032.7mb 38f 35f
7:00 14 16 mph 1032.6mb 38f 34f
6:54 14 16 mph 1032.7mb 38f 34f
6:48 14 16 mph 1032.6mb 38f 34f
6:42 14 16 mph 1032.5mb 38f 34f
6:36 14 16 mph 1032.5mb 38f 34f
6:30 14 16 mph 1032.4mb 38f 34f
6:24 15 16 mph 1032.4mb 38f 34f
6:18 13 15 mph 1032.3mb 38f 34f
6:12 13 15 mph 1032.2mb 38f 34f
6:06 15 16 mph 1032.1mb 38f 34f
6:00 14 17 mph 1032.1mb 38f 34f
5:54 15 17 mph 1032mb 38f 34f
5:48 14 17 mph 1031.9mb 38f 34f
5:42 15 16 mph 1031.8mb 38f 34f
5:36 14 16 mph 1031.6mb 38f 34f
5:30 13 17 mph 1031.5mb 38f 34f
5:24 15 16 mph 1031.5mb 38f 34f
5:18 15 16 mph 1031.5mb 38f 34f
5:12 14 16 mph 1031.6mb 38f 34f
5:06 15 16 mph 1031.5mb 38f 34f
5:00 15 16 mph 1031.5mb 38f 34f
4:54 15 16 mph 1031.5mb 38f 34f
4:48 13 15 mph - - -
4:42 13 15 mph 1031.4mb 38f 34f
4:36 14 16 mph 1031.3mb 38f 34f
4:30 14 16 mph 1031.2mb 38f 34f
4:24 15 16 mph 1031.1mb 38f 34f
4:18 14 17 mph 1031.1mb 38f 34f
4:12 15 16 mph 1031.1mb 38f 35f
4:06 15 17 mph 1031.1mb 38f 35f
4:00 15 17 mph 1031.1mb 38f 35f
3:54 14 15 mph 1031.1mb 38f 35f
3:48 13 15 mph 1031.1mb 38f 35f
3:42 14 16 mph 1031mb 38f 35f
3:36 11 15 mph 1031mb 38f 35f
3:30 13 14 mph 1031mb 38f 35f
3:24 13 15 mph 1031mb 38f 35f
3:18 13 16 mph 1030.8mb 38f 35f
3:12 14 16 mph 1030.8mb 38f 35f
3:06 14 16 mph 1030.9mb 38f 35f
3:00 14 17 mph 1030.8mb 38f 35f
2:54 15 16 mph 1030.8mb 38f 35f
2:48 13 17 mph 1030.9mb 38f 35f
2:42 14 16 mph 1030.9mb 38f 35f
2:36 11 15 mph 1031mb 38f 35f
2:30 11 14 mph 1030.9mb 38f 35f
2:24 11 14 mph 1030.8mb 38f 35f
2:18 10 13 mph - - -
2:12 13 15 mph 1030.8mb 38f 36f
2:06 13 15 mph 1030.7mb 38f 36f
2:00 13 16 mph 1030.7mb 38f 36f
1:54 16 18 mph 1030.5mb 39f 36f
1:48 14 17 mph 1030.5mb 39f 36f
1:42 14 17 mph 1030.5mb 39f -
1:36 11 14 mph 1030.4mb 39f -
1:30 10 13 mph 1030.4mb 39f 35f
1:24 8 9 mph 1030.5mb 39f 35f
1:18 7 8 mph 1030.6mb 39f 35f
1:12 6 7 mph 1030.6mb 39f 35f
1:06 6
mph
1030.6mb 39f 35f
1:00 5 6 mph 1030.6mb 39f 35f
12:54 6 7 mph 1030.5mb 39f 35f
12:48 6 7 mph 1030.5mb 39f 35f
12:42 5 6 mph 1030.4mb 39f 35f
12:36 6
mph
1030.4mb 39f 35f
12:30 6
mph
1030.4mb 39f 35f
12:24 6
mph
1030.4mb 39f 35f
12:18 5 6 mph 1030.4mb 39f 35f
12:12 5 6 mph 1030.3mb 39f 35f
12:06 5 6 mph 1030.4mb 39f 36f
12:00 5 6 mph 1030.4mb 39f 36f
Sáb 03/25 11:54 5 6 mph 1030.4mb 39f 36f
11:48 5 6 mph - - -
11:42 5 6 mph 1030.4mb 39f 36f
11:36 5 6 mph 1030.3mb 39f 36f
11:30 6 7 mph 1030.2mb 39f 36f
11:24 6 7 mph 1030.1mb 39f 37f
11:18 6
mph
1030mb 39f 37f
11:12 5 6 mph 1029.9mb 39f 37f
11:06 6
mph
1029.9mb 39f 37f
11:00 6
mph
1029.9mb 39f 37f
10:54 6 7 mph 1029.9mb 39f 37f
10:48 6 7 mph - - -
10:42 5 6 mph 1029.8mb 39f 37f
10:36 6
mph
1029.8mb 39f 37f
10:30 6 7 mph 1029.7mb 39f 37f
10:24 6 7 mph 1029.7mb 39f 38f
10:18 6 8 mph 1029.7mb - -
10:12 6 7 mph 1029.6mb 39f 38f
10:06 6 7 mph 1029.5mb 39f 38f
10:00 6 7 mph 1029.5mb 39f 38f
9:54 7 8 mph 1029.4mb 39f 38f
9:48 6 8 mph - - -
9:42 7 9 mph 1029.4mb 39f 38f
9:36 8 9 mph 1029.4mb 39f 39f
9:30 7 9 mph 1029.4mb 39f 39f
9:24 8 9 mph 1029.4mb 39f 39f
9:18 8 10 mph - - -
9:12 7 9 mph 1029.2mb 39f 39f
9:06 9 11 mph 1029.2mb 39f 39f
9:00 9 11 mph 1029.1mb 39f 39f
8:54 9 10 mph 1029.1mb 39f 39f
8:48 9 11 mph 1029mb - -
8:42 8 9 mph 1028.9mb 39f 39f
8:36 8 9 mph 1028.7mb 39f 39f
8:30 8 9 mph 1028.6mb 39f 39f
8:24 7
mph
1028.5mb 39f 39f
8:18 7
mph
- - -
8:12 6 7 mph 1028.5mb 39f 39f
8:06 7 8 mph 1028.4mb 39f 39f
8:00 7 8 mph 1028.2mb 39f 39f
7:54 7 9 mph 1028.2mb 39f 40f
7:48 8 9 mph 1028.1mb - -
7:42 8 9 mph 1027.9mb 39f 40f
7:36 8 9 mph 1027.7mb 39f 39f
7:30 8 9 mph 1027.7mb 39f 39f
7:24 7 10 mph 1027.6mb 39f 39f
7:18 9 10 mph 1027.8mb - -
7:12 8 11 mph 1027.2mb 39f 39f
7:06 10 11 mph 1027.3mb 39f 39f
7:00 10 13 mph 1027.3mb 39f 39f
6:54 7 11 mph 1026.8mb 39f 39f
6:48 10 13 mph 1027mb - -
6:42 9 10 mph 1026.8mb 39f 39f
6:36 5 9 mph 1026.6mb 39f 39f
6:30 9
mph
1026.8mb 39f 39f
6:24 5 8 mph 1026.3mb 39f 39f
6:18 8 11 mph - - -
6:12 10 11 mph 1026.5mb 39f 39f
6:06 8 10 mph 1026.1mb 39f 39f
6:00 10 13 mph 1026.1mb 39f 39f
5:54 9 13 mph 1025.8mb 39f 39f
5:48 9 11 mph 1025.9mb - -
5:42 8 9 mph 1025.9mb 39f 39f
5:36 6 7 mph 1025mb 39f 39f
5:30 5 6 mph 1025mb 39f 39f
5:24 2
mph
1024.9mb 39f 39f
5:18 2 5 mph 1025mb 39f 39f
5:12 6 8 mph 1024.8mb 39f 39f
5:06 3 6 mph 1025mb 39f 39f
5:00 5 6 mph 1025.7mb 39f 39f
4:54 6 8 mph 1026mb 39f 39f
4:48 7 8 mph - - -
4:42 8 10 mph 1025.8mb 39f 39f
4:36 10 13 mph 1025.9mb 39f 40f
4:30 13 16 mph 1026.1mb 39f 40f
4:24 15 17 mph 1026.2mb 39f 39f
4:18 14 17 mph 1026.2mb 39f 40f
4:12 11 15 mph 1026.2mb 39f 40f
4:06 10 14 mph 1026mb 39f 40f
4:00 13 15 mph 1026mb 39f 40f
3:54 13 15 mph 1026mb 39f 40f
3:48 9 13 mph 1026.2mb 39f 40f
3:42 10 14 mph 1026.1mb 39f 40f
3:36 13 15 mph 1025.9mb 39f 40f
3:30 14 17 mph 1025.8mb 39f 40f
3:24 14 16 mph 1025.5mb 39f 40f
3:18 14 16 mph 1025.5mb 39f 40f
3:12 14 17 mph 1025.3mb 39f 40f
3:06 15 17 mph 1025.3mb 39f 40f
3:00 16 18 mph 1025.4mb 39f 41f
2:54 15 17 mph 1025.3mb 39f 41f
2:48 14 17 mph 1025.3mb 39f 41f
2:42 15 17 mph 1024.8mb 39f 41f
2:36 14 17 mph 1024.5mb 39f 42f
2:30 15 16 mph 1024.3mb 39f 42f
2:24 15 17 mph 1024.2mb 39f 42f
2:18 14 16 mph 1024.2mb 39f 42f
2:12 11 16 mph 1024.2mb 39f 43f
2:06 14 16 mph 1023.9mb 39f 42f
2:00 15 16 mph 1023.9mb 39f 43f
1:54 14 15 mph 1023.8mb 39f 43f
1:48 14 15 mph 1023.7mb 39f 42f
1:42 11 13 mph 1023.9mb 39f 43f
1:36 9 10 mph 1024.2mb 39f 43f
1:30 6 8 mph 1024mb 39f 42f
1:24 7 9 mph 1023.9mb 39f 44f
1:18 8 9 mph 1023.7mb 39f 43f
1:12 8 9 mph 1023.6mb 39f 43f
1:06 9 10 mph 1023.5mb 39f 43f
1:00 9 10 mph 1023.3mb 39f 43f
12:54 10
mph
1023.4mb 39f 43f
12:48 8 9 mph 1023.4mb 39f 43f
12:42 8 10 mph 1023.3mb 39f 43f
12:36 7 8 mph 1023.1mb 39f 43f
12:30 8 9 mph 1023.1mb 38f 43f
12:24 8 10 mph 1023.2mb 38f 43f
12:18 10 11 mph 1023.2mb 38f 43f
12:12 10 11 mph 1023mb 38f 43f
12:06 10 14 mph 1023.2mb 38f 44f
12:00 14 15 mph 1023mb 38f 44f
11:54 13 14 mph 1023.3mb 38f 44f
11:48 13 14 mph 1023.4mb 38f 44f
11:42 8 9 mph 1023.5mb 38f 42f
11:36 8 10 mph 1023.4mb 38f 43f
11:30 9 10 mph 1023.7mb 38f 44f
11:24 8 13 mph 1023.7mb 38f 43f
11:18 10 11 mph 1023.4mb 38f 45f
11:12 8 9 mph 1023.6mb 38f 45f
11:06 8 9 mph 1023.9mb 38f 45f
11:00 9 10 mph 1023.6mb 38f 45f
10:54 9 10 mph 1023.5mb 38f 45f
10:48 9 11 mph 1023.5mb 38f 45f
10:42 10
mph
1023.2mb 38f 45f
10:36 8 11 mph 1023mb 38f 44f
10:30 8 10 mph 1023.2mb 38f 44f
10:24 8 11 mph 1023.1mb 38f 44f
10:18 10 11 mph 1023.1mb 38f 44f
10:12 9 10 mph 1023.3mb 38f 44f
10:06 9 10 mph 1023.3mb 38f 44f
10:00 7 10 mph 1022.9mb 38f 44f
9:54 8 10 mph 1022.9mb 38f 44f
9:48 9 14 mph 1022.6mb 38f 44f
9:42 10 13 mph 1022.1mb 38f 43f
9:36 10 13 mph 1022.1mb 38f 43f
9:30 10 11 mph 1022mb 38f 43f
9:24 9 10 mph 1022.1mb 38f 43f
9:18 9 11 mph 1022.2mb 38f 43f
9:12 7 9 mph 1022.2mb 38f 43f
9:06 8 11 mph 1022.2mb 38f 42f
9:00 10 11 mph 1022mb 38f 42f
8:54 9 10 mph 1022mb 38f 42f
8:48 7 10 mph 1021.8mb 38f 42f
8:42 8 10 mph 1021.7mb 38f 42f
8:36 8 9 mph 1021.5mb 38f 42f
8:30 7 9 mph 1021.2mb 38f 42f
8:24 8 9 mph 1021.2mb 38f 42f
8:18 6 8 mph 1021.6mb 38f 42f
8:12 6 7 mph 1021.7mb 38f 43f
8:06 5 6 mph 1021.3mb 38f 42f
8:00 3 5 mph 1021.4mb 38f 41f
7:54 5 6 mph 1021.3mb 38f 41f
7:48 1 2 mph 1021.4mb 38f 41f
7:42 2
mph
1021.3mb 38f 41f
7:36 2
mph
1021.3mb 38f 41f
7:30  -  2 mph 1021.5mb 38f 41f
7:24 2 5 mph 1020.9mb 38f 41f
7:18 5
mph
1020.7mb 38f 40f
7:12 5
mph
1020.7mb 38f 41f
7:06 5
mph
1020.3mb 38f 41f
7:00 3
mph
1020mb 38f 40f
6:54  -  3 mph 1019.9mb 38f 40f
6:48 5 7 mph 1019.9mb 38f 40f
6:42 7 8 mph 1019.7mb 38f 40f
6:36 8
mph
1019.6mb 38f 41f
6:30 5
mph
1019.4mb 38f 41f
6:24 2 3 mph 1019.6mb 38f 41f
6:18 3 5 mph 1019.7mb 38f 41f
6:12 3
mph
1019.7mb 38f 42f
6:06 2 3 mph 1019.7mb 38f 43f
6:00 2 3 mph 1019.6mb 38f 42f
5:54 1
mph
1019.5mb 38f 42f
5:48 2 3 mph 1019.4mb 38f 42f
5:42 2
mph
1019.4mb 38f 42f
5:36  -  2 mph 1019.3mb 38f 43f
5:30  -  1 mph 1019.5mb 38f 43f
5:24 1 2 mph 1019.4mb 38f 43f
5:18 2
mph
1019.1mb 38f 43f
5:12 3 5 mph 1018.8mb 38f 43f
5:06 5 6 mph 1018.8mb 38f 42f
5:00 3
mph
1018.8mb 38f 42f
4:54 3
mph
1018.6mb 38f 42f
4:48 2
mph
1018.6mb 38f 42f
4:42 1 3 mph 1018.5mb 38f 42f
4:36 3
mph
1018.5mb 38f 42f
4:30 2 6 mph 1018.4mb - -
4:24 6 7 mph 1018.5mb 38f 42f
4:18 5 6 mph 1018.5mb 38f 42f
4:12 5 6 mph 1018.5mb 38f 42f
4:06 6 8 mph 1018.1mb 38f 43f
4:00 8
mph
1017.8mb 38f 42f
3:54 8 9 mph 1018mb 38f 42f
3:48 9
mph
1018.1mb 38f 42f
3:42 8 9 mph 1018.1mb 38f 43f
3:36 8
mph
1018.1mb 38f 43f
3:30 5 7 mph 1018.4mb 38f 43f
3:24 6 7 mph 1018.4mb 38f 44f
3:18 3 5 mph 1018.5mb 38f 44f
3:12 3 6 mph 1018.5mb 38f 44f
3:06 6 9 mph 1018.9mb 38f 44f
3:00 8 11 mph 1018.6mb 38f 43f
2:54 10 15 mph 1018.2mb 38f 43f
2:48 16 18 mph 1017.6mb 38f 44f
2:42 14 15 mph 1017.8mb 38f -
2:36 11 13 mph 1018.2mb 38f -
2:30 10 14 mph 1018.4mb 38f 43f
2:24 11 13 mph 1018.4mb 38f 44f
2:18 13
mph
- - -
2:12 11 14 mph 1018.2mb 38f 44f
2:06 11 13 mph 1018.3mb 38f 44f
2:00 13 16 mph 1018.3mb 38f -
1:54 15 17 mph 1018.1mb 38f 44f
1:48 14 15 mph 1018.3mb 38f 44f
1:42 13 15 mph 1018.6mb 38f 44f
1:36 10 14 mph 1018.8mb 39f 44f
1:30 11 13 mph 1018.9mb 39f 45f
1:24 9 11 mph 1019mb 39f 45f
1:18 7 9 mph 1019.1mb 39f 45f
1:12 8 11 mph 1019.2mb 39f 45f
1:06 8 10 mph 1019mb 39f 45f
1:00 9 11 mph 1018.9mb 39f -
12:54 9 11 mph 1018.9mb 38f 45f
12:48 8 11 mph 1019mb 38f 45f
12:42 10 13 mph 1018.8mb 38f 45f
12:36 9 14 mph 1018.9mb 38f 45f
12:30 8 11 mph 1019mb 39f 44f
12:24 10 14 mph 1019mb 39f 45f
12:18 11 14 mph 1018.9mb 39f 45f
12:12 9 15 mph 1018.9mb 39f 45f
12:06 11 15 mph 1018.9mb 39f 45f
12:00 13 17 mph 1019mb 38f 45f
Sex 03/24 11:54 13 16 mph 1018.9mb 39f 45f
11:48 13 16 mph - - -
11:42 10 14 mph 1019.4mb 39f 45f
11:36 10 14 mph 1019.4mb 38f 45f
11:30 11 14 mph 1019.3mb 38f 45f
11:24 13 16 mph 1019.2mb 38f 45f
11:18 13 17 mph - - -
11:12 15 20 mph 1019.1mb 38f 45f
11:06 17 21 mph 1019.1mb 38f 45f
11:00 20 24 mph 1019.1mb 38f 46f
10:54 20 23 mph 1019mb 38f 46f
10:48 20 28 mph - - -
10:42 21 24 mph 1018.8mb 38f 46f
10:36 21 24 mph 1018.9mb 38f 45f
10:30 23 26 mph 1018.9mb 38f 46f
10:24 21 25 mph 1018.9mb 38f 45f
10:18 21 24 mph 1019.1mb - -
10:12 20 23 mph 1019.3mb 38f 45f
10:06 18 22 mph 1019.5mb 38f 45f
10:00 17 21 mph 1019.6mb 38f 45f
9:54 17 22 mph 1019.7mb 38f 46f
9:48 15 21 mph 1019.7mb - -
9:42 15 18 mph 1019.8mb 38f 45f
9:36 14 16 mph 1020mb 38f 45f
9:30 14 17 mph 1020.1mb 38f 45f
9:24 11 16 mph 1020.2mb 38f 45f
9:18 13 17 mph 1020.3mb 38f 45f
9:12 13 17 mph 1020.3mb 38f 45f
9:06 18 22 mph 1020.1mb 38f 45f
9:00 14 17 mph 1020.2mb 38f 45f
8:54 15 22 mph 1020.2mb 38f 44f
8:48 14 18 mph - - -
8:42 14 18 mph 1020.2mb 38f 44f
8:36 14 17 mph 1020.1mb 38f 45f
8:30 13 18 mph 1020.3mb 38f 44f
8:24 14 18 mph 1020.2mb 38f 44f
8:18 15 20 mph - - -
8:12 17 22 mph 1020.1mb 38f 45f
8:06 18 25 mph 1020mb 38f 45f
8:00 18 22 mph 1019.8mb 38f 44f
7:54 18 24 mph 1019.6mb 38f 44f
7:48 21 24 mph 1019.6mb - -
7:42 20 25 mph 1019.6mb 38f 44f
7:36 18 23 mph 1019.5mb 38f 44f
7:30 20 24 mph 1019.4mb 38f 44f
7:24 20 26 mph 1019.3mb 38f 44f
7:18 21 26 mph - - -
7:12 21 28 mph 1019.5mb 38f 44f
7:06 23 28 mph 1019.6mb 39f 44f
7:00 20 28 mph 1019.7mb 39f 44f
6:54 22 26 mph 1019.7mb 39f 44f
6:48 20 25 mph - - -
6:42 23 28 mph 1019.9mb 38f 45f
6:36 20 25 mph 1020.2mb 38f 44f
6:30 20 25 mph 1020.3mb 38f 44f
6:24 20 23 mph 1020.3mb 38f 44f
6:18 20 26 mph - - -
6:12 22 26 mph 1020.7mb 38f 45f
6:06 20 28 mph 1020.8mb 38f 44f
6:00 21 25 mph 1020.7mb 38f 45f
5:54 20 25 mph 1020.7mb 38f 44f
5:48 23 29 mph 1020.7mb 38f 44f
5:42 22 29 mph 1020.6mb 38f 44f
5:36 22 29 mph 1020.8mb 38f 44f
5:30 22 26 mph 1021mb 38f 44f
5:24 24 29 mph 1021.1mb 38f 44f
5:18 24 30 mph 1021.2mb 38f 44f
5:12 23 32 mph 1021.2mb 38f 44f
5:06 24 33 mph 1021.3mb 38f 44f
5:00 23 31 mph 1021.6mb 38f 44f
4:54 18 23 mph 1021.9mb 38f 44f
4:48 22 31 mph 1021.9mb 38f 44f
4:42 23 29 mph 1021.8mb 38f 43f
4:36 23 29 mph 1021.7mb 38f 43f
4:30 26 31 mph 1021.7mb 38f 43f
4:24 25 31 mph 1022mb 38f 44f
4:18 23 32 mph 1022.2mb 38f 43f
4:12 22 32 mph 1022.2mb 38f 43f
4:06 24 32 mph 1022.5mb 38f 43f
4:00 22 24 mph 1022.5mb 38f 43f
3:54 22 28 mph 1022.6mb 38f 43f
3:48 22 26 mph 1022.7mb 38f 43f
3:42 23 28 mph 1022.7mb 38f 43f
3:36 22 29 mph 1022.8mb 38f 43f
3:30 18 31 mph 1023.2mb 38f 42f
3:24 22 28 mph 1023.1mb 38f 42f
3:18 22 30 mph 1023.1mb 38f 42f
3:12 25 40 mph 1023.2mb 38f 42f
3:06 26 33 mph 1023.4mb 38f 42f
3:00 23 32 mph 1023.7mb 38f 42f
2:54 25 30 mph 1024mb 38f 42f
2:48 25 33 mph 1024.1mb 38f 42f
2:42 24 29 mph 1024.3mb 38f 42f
2:36 23 32 mph 1024.7mb 38f 42f
2:30 26 36 mph 1024.8mb 38f 42f
2:24 24 31 mph 1025mb 38f 42f
2:18 22 28 mph 1025.3mb 38f 42f
2:12 24 33 mph 1025.3mb 38f 42f
2:06 23 32 mph 1025.5mb 38f 42f
2:00 21 29 mph 1025.7mb 38f 42f
1:54 26 30 mph 1025.9mb 38f 42f
1:48 25 31 mph 1026.1mb 38f 42f
1:42 22 29 mph 1026.4mb 38f 42f
1:36 22 30 mph 1026.7mb 38f 42f
1:30 22 29 mph 1026.9mb 38f 42f
1:24 17 22 mph 1027.3mb 38f 41f
1:18 21 26 mph 1027.5mb 38f 41f
1:12 22 29 mph 1027.8mb 38f 41f
1:06 21 28 mph 1028.1mb 38f 41f
1:00 21 28 mph 1028.2mb 38f 41f
12:54 21 26 mph 1028.5mb 38f 41f
12:48 22 29 mph 1028.7mb 38f 41f
12:42 21 28 mph 1028.7mb 38f 41f
12:36 24 30 mph 1028.9mb 38f 41f
12:30 22 32 mph 1029.1mb 38f 41f
12:24 25 31 mph 1029.1mb 38f 41f
12:18 26 34 mph 1029.1mb 38f 41f
12:12 25 31 mph 1029.3mb 38f 41f
12:06 23 29 mph 1029.4mb 38f 41f
12:00 22 33 mph 1029.7mb 38f 41f
11:54 25 29 mph 1029.7mb 38f 41f
11:48 24 28 mph 1029.9mb 38f 41f
11:42 22 29 mph 1030.2mb 38f 41f
11:36 23 28 mph 1030.3mb 38f 41f
11:30 25 32 mph 1030.4mb 38f 41f
11:24 28 32 mph 1030.5mb 38f 41f
11:18 22 28 mph 1030.5mb 38f 41f
11:12 23 30 mph 1030.4mb 38f 41f
11:06 28 32 mph 1030mb 38f 41f
11:00 22 30 mph 1030.2mb 38f 40f
10:54 22 34 mph 1030.2mb 38f 40f
10:48 25 29 mph 1030.4mb 38f 41f
10:42 23 32 mph 1030.9mb 38f 40f
10:36 22 28 mph 1031mb 38f 40f
10:30 23 26 mph 1030.9mb 38f 41f
10:24 20 29 mph 1031mb 38f 40f
10:18 23 31 mph 1031.1mb 38f 40f
10:12 24 28 mph 1031.1mb 38f 40f
10:06 23 28 mph 1031.1mb 38f 40f
10:00 22 28 mph 1031.1mb 38f 40f
9:54 17 24 mph 1031.1mb 38f 40f
9:48 18 24 mph 1031mb 38f 40f
9:42 21 25 mph 1031mb 38f 40f
9:36 18 23 mph 1031mb 38f 39f
9:30 16 18 mph 1031.2mb 38f 39f
9:24 15 20 mph 1031.2mb 38f 39f
9:18 16 21 mph 1031.2mb 38f 39f
9:12 17 20 mph 1031.5mb 38f 39f
9:06 16 21 mph 1031.7mb 38f 39f
9:00 15 18 mph 1032mb 38f 38f
8:54 13 14 mph 1032.1mb 38f 38f
8:48 11 13 mph 1032.4mb 38f 37f
8:42 10 11 mph 1032.5mb 38f 37f
7:48 3 5 mph 1033.5mb 38f 33f
7:42 5
mph
1033.5mb 38f 34f
7:36 5 6 mph 1033.5mb 38f 34f
7:30 5 7 mph 1033.4mb 38f 34f
7:24 5 6 mph 1033.5mb 38f 34f
7:18 3 5 mph 1033.6mb 38f 34f
7:12 2 5 mph 1033.7mb 38f 33f
7:06  -  2 mph 1033.8mb 38f 33f
7:00  -  2 mph 1033.6mb 38f 32f
6:54 1 2 mph 1033.6mb 38f 32f
6:48 2 3 mph 1033.6mb 38f 31f
6:42 3 6 mph 1033.5mb 38f 31f
6:36 5 6 mph 1033.5mb 38f 32f
6:30 6
mph
1033.5mb 38f 31f
6:24 6
mph
1033.3mb 38f 31f
6:18 6 7 mph 1033.2mb 38f 31f
6:12 6
mph
1033.2mb 38f 32f
6:06 3 5 mph 1033.1mb 38f 31f
6:00 5
mph
1033.1mb 38f 31f
5:54 3 5 mph 1033mb 38f 31f
5:48 5
mph
1033mb 38f 31f
5:42 3 5 mph 1033mb 38f 31f
5:36 5 6 mph 1033.1mb 38f 31f
5:30 5 6 mph 1033.2mb 38f 31f
5:24 5 6 mph 1033.6mb 38f 31f
5:18 5 6 mph 1033.5mb 38f 31f
5:12 6
mph
1033.4mb 38f 31f
5:06 5 6 mph 1033.4mb 38f 31f
5:00 5 6 mph 1033.3mb 38f 31f
4:54 6
mph
1033.2mb 38f 31f
4:48 6 7 mph 1033.2mb 38f 31f
4:42 5 7 mph 1033.3mb 38f 30f
4:36 5 6 mph 1033.4mb 38f 30f
4:30 5 6 mph 1033.4mb 38f -
4:24 6 8 mph 1033.6mb 37f 29f
4:18 8 9 mph 1033.7mb 37f 29f
4:12 8 9 mph 1034mb 37f 29f
4:06 6 7 mph 1033.8mb 37f 29f
4:00 6 7 mph 1033.8mb 37f 29f
3:54 6 7 mph 1034mb 37f 30f
3:48 6 7 mph 1034.3mb 37f 30f
3:42 6 7 mph 1034.1mb 37f 30f
3:36 7 8 mph 1034.3mb 37f 31f
3:30 7 8 mph 1034.3mb - -
3:24 8 9 mph 1034.1mb 37f 31f
3:18 8 10 mph 1034.1mb 37f 30f
3:12 10 11 mph 1034.2mb 37f 30f
3:06 10 11 mph 1034.2mb 37f 30f
3:00 10 13 mph 1034.1mb 37f 29f
2:54 6
mph
1034.1mb 37f 31f
2:48 3
mph
1033.9mb 37f 31f
2:42 1 2 mph 1033.9mb 38f 31f
2:36 2
mph
1034mb 38f 31f
2:30 1 2 mph 1033.9mb 38f 32f
2:24 2 3 mph 1033.9mb 38f 32f
2:18 2
mph
1033.7mb 38f 32f
2:12 2
mph
1033.5mb 38f 32f
2:06 1 2 mph 1033.7mb 38f 31f
2:00 1 2 mph 1033.8mb 38f 31f
1:54 2
mph
1034.1mb 38f 31f
1:48 2
mph
1034.4mb 38f 31f
1:42 3 5 mph 1034.4mb 38f -
1:36 2 3 mph 1034.4mb 38f -
1:30 1 3 mph 1034.5mb 38f 31f
1:24 2 3 mph 1034.5mb 38f 31f
1:18  -  2 mph 1034.7mb 38f 31f
1:12 2 7 mph 1034.7mb 38f 31f
1:06 6
mph
1034.8mb 38f 31f
1:00 5
mph
1034.7mb 38f 31f
12:54 3 6 mph 1034.4mb 38f 31f
12:48 6 8 mph 1034.4mb 38f 31f
12:42 7 8 mph 1034.1mb 38f 31f
12:36 7 8 mph 1034.2mb 38f 32f
12:30 5 6 mph 1034mb 38f 32f
12:24 5 6 mph 1034.1mb 38f 32f
12:18 6 7 mph 1034.2mb 38f 32f
12:12 5 7 mph 1034.2mb 38f 32f
12:06 6 7 mph 1034.2mb 38f 32f
12:00 5 7 mph 1034.3mb 38f -
Qui 03/23 11:54 5 7 mph 1034.5mb 38f 32f
11:48 7 8 mph - - -
11:42 7 8 mph 1034.7mb 38f 32f
11:36 5 7 mph 1034.7mb 38f 32f
11:30 6 8 mph 1034.7mb 38f 32f
11:24 6 7 mph 1034.7mb 38f 33f
11:18 6 7 mph 1034.9mb 38f 33f
11:12 5 7 mph 1034.9mb 38f 33f
11:06 6 8 mph 1034.7mb 38f 32f
11:00 8 9 mph 1034.8mb 38f 33f
10:54 6 8 mph 1034.9mb 38f 33f
10:48 6 8 mph 1034.9mb 38f 33f
10:42 6 8 mph 1035.1mb 38f 33f
10:36 6 8 mph 1035mb 38f 33f
10:30 6 9 mph 1034.8mb 38f 33f
10:24 7 9 mph 1034.9mb 38f 33f
10:18 6 9 mph - - -
10:12 8 9 mph 1034.9mb 38f 33f
10:06 7 10 mph 1034.7mb 38f 34f
10:00 7 8 mph 1034.4mb 38f 33f
9:54 5 6 mph 1034.4mb 38f 33f
9:48 6 7 mph 1034.6mb - -
9:42 7 8 mph 1034.5mb 38f 33f
9:36 7 10 mph 1034.3mb 38f 33f
9:30 8 10 mph 1034.2mb 38f 33f
9:24 6 8 mph 1034.4mb 38f 33f
9:18 6 8 mph - - -
9:12 7 10 mph 1034.2mb 38f 34f
9:06 7 8 mph 1034mb 38f 34f
9:00 5 7 mph 1033.9mb 38f 34f
8:54 6 8 mph 1033.8mb 38f 34f
8:48 6 8 mph 1033.7mb - -
8:42 6 7 mph 1033.6mb 38f 35f
8:36 3 6 mph 1033.6mb 38f 35f
8:30 3 6 mph 1033.4mb 38f 35f
8:24 6 9 mph 1033.3mb 38f 35f
8:18 7 9 mph - - -
8:12 7 8 mph 1033.1mb 38f 35f
8:06 7 9 mph 1033mb 38f 36f
8:00 6 9 mph 1033mb 38f 36f
7:54 6 8 mph 1032.9mb 38f 36f
7:48 7 9 mph - - -
7:42 7 9 mph 1032.6mb 38f 36f
7:36 7 10 mph 1032.5mb 38f 37f
7:30 7 10 mph 1032.5mb 38f 37f
7:24 8 13 mph 1032.5mb 38f 37f
7:18 8 10 mph - - -
7:12 7 11 mph 1032.4mb 38f 37f
7:06 9 16 mph 1032.3mb 38f 37f
7:00 13 16 mph 1032.1mb 38f -
6:54 13 17 mph 1032mb 38f 37f
6:48 11 16 mph 1032mb - -
6:42 9 14 mph 1031.9mb 39f 38f
6:36 13 20 mph 1031.8mb 39f 38f
6:30 11 16 mph 1031.7mb 39f 38f
6:24 11 17 mph 1031.7mb 39f 38f